Terminal Aerodrome Forecast
Issued by NWS

Home | Current Version | Previous Version | Text Only | Print | Product List | Glossary On
Versions: 1 2 3 4 5 6 7 8 9 10 11 12 13 14 15 16 17 18 19 20
364
FTUS43 KAPX 281130
TAFPLN
TAF
KPLN 281130Z 2812/0112 15006KT P6SM OVC080
     FM281500 14008KT P6SM -SHRA OVC040
     FM281900 14007KT 1 1/2SM -SHRA BR OVC003
     FM282300 08004KT 1 1/2SM -SHRA BR OVC003
     FM010500 02004KT 3/4SM -SHRA BR OVC003
     FM011000 01008KT 1 1/2SM -SHSN OVC004=

USA.gov is the U.S. government's official web portal to all federal, state and local government web resources and services.